Terminal Aerodrome Forecast
Issued by NWS

Home | Current Version | Previous Version | Text Only | Print | Product List | Glossary On
Versions: 1 2 3 4 5 6 7 8 9 10 11 12 13 14
000
FTUS45 KFGZ 240417 AAA
TAFPGA
TAF AMD
KPGA 240417Z 2404/2424 26010G20KT P6SM FEW250
     FM240600 VRB06KT P6SM FEW250
     FM242100 25014G25KT P6SM BKN200=

USA.gov is the U.S. government's official web portal to all federal, state and local government web resources and services.